Portada
METAR-TAF:

METAR-TAF

Aeropuertos :

Aeropuerto Internacional de Irkutsk

Irkutsk, Rusia

latitud: 52-16N, longitud: 104-19E, altitud: 513 m

Observación

El informe se hizo hace 29 minutos, a las 00:00 UTC
Viento 2 kt con dirección variable
Temperatura 9°C
Humedad 100%
Presión 1015 hPa
Visibilidad: 9000 m
Nubes dispersas a una altura de 200 ft

METAR: UIII 220000Z VRB01MPS 9000 SCT002 09/09 Q1015 R12/CLRD60 NOSIG RMK QBB080 MT OBSC QFE719/0959

Hora: 08:29 (00:29 UTC)

Pronóstico

El informe se hizo hace 1 hora y 29 minutos, a las 23:00 UTC
Pronóstico válido del 22 a las 00 UTC al 22 a las 24 UTC
Viento 6 kt del oeste-noroeste
Visibilidad 10 km o más
Nubes dispersas a una altura de 5000 ft, Cumulonimbus.
Evolucionando progresivamente
del 22 a las 09 UTC al 22 a las 11 UTC
Viento 10 kt del sur-sureste

TAF: UIII 212300Z 2200/2224 30003MPS 9999 SCT050CB BECMG 2209/2211 16005MPS

Observaciones y pronósticos meteorológicos de más de 4000 aeropuertos (mensajes METAR y TAF).

Los puntos amarillos y rojos representan las estaciones disponibles.

Ponga el ratón en el punto deseado para ver el nombre de la estación.

Haga clic para ver las observaciones y los pronósticos meteorológicos.

Para cambiar el mapa : haga clic en los botones verdes con una cruz de color negro para hacer un zoom, en el botón verde con un guión para alejar o en las flechas verdes para mapas adyacentes.


METAR-TAF: